Time;durP1;ratioP1;P1;durP2;ratioP2;P2;SDS_P1;SDS_P2;PMS_P1;PMS_P2;Temp;Humidity;BMP_temperature;BMP_pressure;BME280_temperature;BME280_humidity;BME280_pressure;Samples;Min_cycle;Max_cycle;Signal;HPM_P1;HPM_P2
2024/03/10 00:01:20;;;;;;;25.40;20.00;;;5.50;99.90;;;;;;5115891;27;20041;-64
2024/03/10 00:03:46;;;;;;;22.17;18.90;;;5.50;99.90;;;;;;5110545;27;20134;-63
2024/03/10 00:06:12;;;;;;;23.15;18.95;;;5.50;99.90;;;;;;5111221;27;20121;-63
2024/03/10 00:08:40;;;;;;;23.02;19.90;;;5.50;99.90;;;;;;5112694;27;20038;-64
2024/03/10 00:11:06;;;;;;;26.40;21.20;;;5.50;99.90;;;;;;5130135;27;20417;-64
2024/03/10 00:13:31;;;;;;;23.73;20.27;;;5.50;99.90;;;;;;5094007;27;20031;-64
2024/03/10 00:15:58;;;;;;;26.02;20.65;;;5.60;99.90;;;;;;5109566;27;20052;-64
2024/03/10 00:18:24;;;;;;;24.27;20.73;;;5.60;99.90;;;;;;5112005;27;20126;-63
2024/03/10 00:20:50;;;;;;;26.08;19.80;;;5.60;99.90;;;;;;5117768;27;20127;-63
2024/03/10 00:23:15;;;;;;;26.17;20.67;;;5.50;99.90;;;;;;5110514;27;20048;-64
2024/03/10 00:25:43;;;;;;;25.10;19.65;;;5.50;99.90;;;;;;5130926;27;20027;-64
2024/03/10 00:28:08;;;;;;;23.92;20.35;;;5.50;99.90;;;;;;5118836;27;20055;-63
2024/03/10 00:30:34;;;;;;;22.83;19.52;;;5.50;99.90;;;;;;5128185;27;20027;-64
2024/03/10 00:33:00;;;;;;;27.25;20.70;;;5.50;99.90;;;;;;5110261;27;20068;-64
2024/03/10 00:35:26;;;;;;;23.20;20.15;;;5.50;99.90;;;;;;5124303;27;20035;-64
2024/03/10 00:37:51;;;;;;;25.27;20.52;;;5.50;99.90;;;;;;5115691;27;20035;-63
2024/03/10 00:40:17;;;;;;;26.40;21.35;;;5.50;99.90;;;;;;5106324;27;20047;-63
2024/03/10 00:42:43;;;;;;;24.63;20.90;;;5.60;99.90;;;;;;5108728;27;20039;-63
2024/03/10 00:45:09;;;;;;;23.35;20.38;;;5.50;99.90;;;;;;5110533;27;20464;-64
2024/03/10 00:47:37;;;;;;;23.55;20.90;;;5.50;99.90;;;;;;5111681;27;20028;-64
2024/03/10 00:50:04;;;;;;;26.58;21.67;;;5.50;99.90;;;;;;5108605;27;20065;-64
2024/03/10 00:52:30;;;;;;;24.55;20.50;;;5.50;99.90;;;;;;5102359;27;21549;-63
2024/03/10 00:54:56;;;;;;;29.13;21.75;;;5.50;99.90;;;;;;5104282;27;20039;-63
2024/03/10 00:57:21;;;;;;;24.50;20.23;;;5.50;99.90;;;;;;5109775;27;20035;-64
2024/03/10 00:59:47;;;;;;;24.70;21.15;;;5.50;99.90;;;;;;5102632;27;20051;-64
2024/03/10 01:02:13;;;;;;;25.80;20.98;;;5.50;99.90;;;;;;5144883;27;20572;-63
2024/03/10 01:04:38;;;;;;;24.35;19.83;;;5.50;99.90;;;;;;5108237;27;20102;-63
2024/03/10 01:07:04;;;;;;;24.88;19.70;;;5.60;99.90;;;;;;5104865;27;20043;-64
2024/03/10 01:09:30;;;;;;;23.08;19.90;;;5.50;99.90;;;;;;5104281;27;20069;-64
2024/03/10 01:11:55;;;;;;;24.38;19.48;;;5.50;99.90;;;;;;5105459;27;20512;-64
2024/03/10 01:14:21;;;;;;;25.42;21.20;;;5.50;99.90;;;;;;5106552;27;20043;-63
2024/03/10 01:16:47;;;;;;;25.23;20.08;;;5.50;99.90;;;;;;5105893;27;20039;-63
2024/03/10 01:19:13;;;;;;;24.20;19.55;;;5.40;99.90;;;;;;5104520;27;20100;-64
2024/03/10 01:21:39;;;;;;;25.13;21.50;;;5.50;99.90;;;;;;5105561;27;20032;-64
2024/03/10 01:24:05;;;;;;;25.00;20.63;;;5.50;99.90;;;;;;5104861;27;20046;-63
2024/03/10 01:26:30;;;;;;;25.08;20.75;;;5.50;99.90;;;;;;5108382;27;20114;-63
2024/03/10 01:28:56;;;;;;;25.10;20.23;;;5.50;99.90;;;;;;5106809;27;20318;-64
2024/03/10 01:31:22;;;;;;;25.52;20.48;;;5.50;99.90;;;;;;5105684;27;20032;-64
2024/03/10 01:33:48;;;;;;;27.17;20.40;;;5.50;99.90;;;;;;5105945;27;20482;-64
2024/03/10 01:36:14;;;;;;;22.58;19.42;;;5.50;99.90;;;;;;5107501;27;20112;-64
2024/03/10 01:38:40;;;;;;;25.13;22.02;;;5.50;99.90;;;;;;5104644;27;20093;-63
2024/03/10 01:41:06;;;;;;;23.02;20.13;;;5.50;99.90;;;;;;5107416;27;20047;-64
2024/03/10 01:43:33;;;;;;;22.85;20.45;;;5.50;99.90;;;;;;5105580;27;20121;-64
2024/03/10 01:46:07;;;;;;;26.30;20.85;;;5.50;99.90;;;;;;5126881;27;20065;-64
2024/03/10 01:48:44;;;;;;;24.80;20.25;;;5.50;99.90;;;;;;5142102;27;20043;-64
2024/03/10 01:51:12;;;;;;;22.95;19.70;;;5.50;99.90;;;;;;5124344;27;20046;-63
2024/03/10 01:53:38;;;;;;;26.05;20.20;;;5.50;99.90;;;;;;5126390;27;20816;-64
2024/03/10 01:56:04;;;;;;;25.17;20.02;;;5.50;99.90;;;;;;5107474;27;20042;-64
2024/03/10 01:58:31;;;;;;;22.90;20.30;;;5.50;99.90;;;;;;5107997;27;20051;-64
2024/03/10 02:01:01;;;;;;;24.17;19.90;;;5.50;99.90;;;;;;5110044;27;20035;-63
2024/03/10 02:03:27;;;;;;;25.13;20.05;;;5.50;99.90;;;;;;5125481;27;20124;-63
2024/03/10 02:05:53;;;;;;;25.83;20.80;;;5.50;99.90;;;;;;5094844;27;20043;-64
2024/03/10 02:08:19;;;;;;;24.92;19.95;;;5.60;99.90;;;;;;5145740;27;20370;-64
2024/03/10 02:10:46;;;;;;;21.90;19.45;;;5.60;99.90;;;;;;5108515;27;20134;-64
2024/03/10 02:13:13;;;;;;;25.20;19.92;;;5.50;99.90;;;;;;5106258;27;20043;-63
2024/03/10 02:15:38;;;;;;;23.65;19.10;;;5.60;99.90;;;;;;5112118;27;20037;-63
2024/03/10 02:18:05;;;;;;;29.50;19.10;;;5.50;99.90;;;;;;5145583;27;20114;-64
2024/03/10 02:20:32;;;;;;;25.73;20.08;;;5.60;99.90;;;;;;5109107;27;20075;-64
2024/03/10 02:22:59;;;;;;;25.70;20.25;;;5.60;99.90;;;;;;5129283;27;20132;-64
2024/03/10 02:25:34;;;;;;;25.95;19.65;;;5.60;99.90;;;;;;5108181;27;20041;-64
2024/03/10 02:28:09;;;;;;;24.75;20.38;;;5.60;99.90;;;;;;5127568;27;20036;-64
2024/03/10 02:30:42;;;;;;;23.90;19.77;;;5.60;99.90;;;;;;5109800;27;20039;-64
2024/03/10 02:47:14;;;;;;;24.25;19.40;;;5.50;99.90;;;;;;5139485;27;20500;-64
2024/03/10 02:49:40;;;;;;;25.15;19.40;;;5.50;99.90;;;;;;5112083;27;20035;-63
2024/03/10 02:52:06;;;;;;;22.88;19.40;;;5.50;99.90;;;;;;5131359;27;20075;-64
2024/03/10 02:54:31;;;;;;;26.25;20.90;;;5.50;99.90;;;;;;5141090;27;20078;-64
2024/03/10 02:56:57;;;;;;;24.90;18.77;;;5.50;99.90;;;;;;5119472;27;20605;-64
2024/03/10 02:59:24;;;;;;;23.10;19.77;;;5.40;99.90;;;;;;5112124;27;20051;-64
2024/03/10 03:01:51;;;;;;;25.00;20.27;;;5.40;99.90;;;;;;5107355;27;20126;-64
2024/03/10 03:04:16;;;;;;;24.30;20.10;;;5.40;99.90;;;;;;5105603;27;20067;-64
2024/03/10 03:06:42;;;;;;;26.63;20.40;;;5.30;99.90;;;;;;5141379;27;20433;-64
2024/03/10 03:09:08;;;;;;;25.08;19.83;;;5.30;99.90;;;;;;5109349;27;20126;-64
2024/03/10 03:11:34;;;;;;;24.05;19.83;;;5.30;99.90;;;;;;5145669;27;20491;-64
2024/03/10 03:14:01;;;;;;;27.20;19.35;;;5.30;99.90;;;;;;5119626;27;20130;-64
2024/03/10 03:16:29;;;;;;;22.52;19.35;;;5.30;99.90;;;;;;5118332;27;20075;-64
2024/03/10 03:18:54;;;;;;;24.63;18.60;;;5.30;99.90;;;;;;5113455;27;20117;-64
2024/03/10 03:21:20;;;;;;;24.10;19.98;;;5.30;99.90;;;;;;5116145;27;20422;-64
2024/03/10 03:23:46;;;;;;;24.17;19.88;;;5.30;99.90;;;;;;5131630;27;20073;-64
2024/03/10 03:26:14;;;;;;;22.92;19.58;;;5.30;99.90;;;;;;5118254;27;20126;-63
2024/03/10 03:28:40;;;;;;;25.50;20.23;;;5.30;99.90;;;;;;5132938;27;20031;-64
2024/03/10 03:31:05;;;;;;;22.10;19.20;;;5.30;99.90;;;;;;5128400;27;20393;-64
2024/03/10 03:33:31;;;;;;;24.27;19.17;;;5.30;99.90;;;;;;5130342;27;20474;-64
2024/03/10 03:35:58;;;;;;;24.40;20.25;;;5.20;99.90;;;;;;5127146;27;20592;-64
2024/03/10 03:38:24;;;;;;;27.38;19.60;;;5.20;99.90;;;;;;5109609;27;20049;-64
2024/03/10 03:40:50;;;;;;;23.92;20.20;;;5.30;99.90;;;;;;5110632;27;20035;-64
2024/03/10 03:43:16;;;;;;;25.77;21.10;;;5.30;99.90;;;;;;5132793;27;20071;-64
2024/03/10 03:45:42;;;;;;;29.13;21.05;;;5.10;99.90;;;;;;5115364;27;20043;-64
2024/03/10 03:48:08;;;;;;;23.80;20.02;;;5.20;99.90;;;;;;5110204;27;20045;-64
2024/03/10 03:50:33;;;;;;;24.02;18.85;;;5.20;99.90;;;;;;5109775;27;20035;-64
2024/03/10 03:53:00;;;;;;;24.63;20.92;;;5.20;99.90;;;;;;5117972;27;20050;-64
2024/03/10 03:55:27;;;;;;;23.77;19.70;;;5.20;99.90;;;;;;5111346;27;20114;-64
2024/03/10 03:57:53;;;;;;;24.90;20.08;;;5.20;99.90;;;;;;5103466;27;20126;-64
2024/03/10 04:00:19;;;;;;;27.02;20.67;;;5.20;99.90;;;;;;5127266;27;20448;-64
2024/03/10 04:02:47;;;;;;;23.75;19.73;;;5.20;99.90;;;;;;5130633;27;20110;-64
2024/03/10 04:05:13;;;;;;;25.23;19.88;;;5.10;99.90;;;;;;5131033;27;20438;-64
2024/03/10 04:07:40;;;;;;;24.60;20.17;;;5.10;99.90;;;;;;5120446;27;20122;-64
2024/03/10 04:10:09;;;;;;;23.58;20.00;;;5.10;99.90;;;;;;5112002;27;20058;-64
2024/03/10 04:12:35;;;;;;;23.25;20.52;;;5.00;99.90;;;;;;5115594;27;20096;-64
2024/03/10 04:15:01;;;;;;;26.02;20.67;;;5.00;99.90;;;;;;5128920;27;20449;-64
2024/03/10 04:17:27;;;;;;;23.02;19.17;;;5.10;99.90;;;;;;5114908;27;20130;-64
2024/03/10 04:19:52;;;;;;;24.10;19.58;;;5.00;99.90;;;;;;5110276;27;20122;-64
2024/03/10 04:22:19;;;;;;;26.42;20.65;;;5.00;99.90;;;;;;5132448;27;20103;-64
2024/03/10 04:24:45;;;;;;;24.58;21.17;;;5.00;99.90;;;;;;5109447;27;20039;-64
2024/03/10 04:27:11;;;;;;;25.00;20.80;;;4.90;99.90;;;;;;5131214;27;20087;-64
2024/03/10 04:29:36;;;;;;;26.48;21.55;;;4.90;99.90;;;;;;5128237;27;20393;-64
2024/03/10 04:32:02;;;;;;;25.02;21.25;;;4.90;99.90;;;;;;5145309;27;20075;-64
2024/03/10 04:34:29;;;;;;;24.05;20.52;;;5.00;99.90;;;;;;5144102;27;20035;-64
2024/03/10 04:36:54;;;;;;;28.13;21.90;;;4.90;99.90;;;;;;5146955;27;20122;-64
2024/03/10 04:39:21;;;;;;;26.27;21.05;;;4.90;99.90;;;;;;5116885;27;20133;-64
2024/03/10 04:41:47;;;;;;;28.63;20.95;;;4.90;99.90;;;;;;5109907;27;20071;-64
2024/03/10 04:44:13;;;;;;;26.27;20.77;;;4.80;99.90;;;;;;5106672;27;20218;-64
2024/03/10 04:46:39;;;;;;;26.70;21.10;;;4.80;99.90;;;;;;5133926;27;20106;-64
2024/03/10 04:49:05;;;;;;;24.63;20.65;;;4.80;99.90;;;;;;5148164;27;20035;-64
2024/03/10 04:51:30;;;;;;;26.88;22.15;;;4.80;99.90;;;;;;5129366;27;20546;-64
2024/03/10 04:53:56;;;;;;;24.58;20.75;;;4.80;99.90;;;;;;5129814;27;20445;-64
2024/03/10 04:56:22;;;;;;;27.60;21.52;;;4.80;99.90;;;;;;5149801;27;20473;-64
2024/03/10 04:58:49;;;;;;;26.23;20.60;;;4.70;99.90;;;;;;5111938;27;20497;-64
2024/03/10 05:01:17;;;;;;;25.27;21.60;;;4.70;99.90;;;;;;5125728;27;20514;-64
2024/03/10 05:03:42;;;;;;;25.38;20.17;;;4.70;99.90;;;;;;5144419;27;20050;-64
2024/03/10 05:06:09;;;;;;;25.95;21.27;;;4.50;99.90;;;;;;5129113;27;20035;-64
2024/03/10 05:08:35;;;;;;;31.40;21.67;;;4.60;99.90;;;;;;5109385;27;20054;-64
2024/03/10 05:11:03;;;;;;;27.40;21.92;;;4.60;99.90;;;;;;5127676;27;20046;-64
2024/03/10 05:13:30;;;;;;;27.30;20.65;;;4.50;99.90;;;;;;5108979;27;20509;-64
2024/03/10 05:15:55;;;;;;;29.52;22.15;;;4.50;99.90;;;;;;5124356;27;20413;-64
2024/03/10 05:18:22;;;;;;;26.00;21.98;;;4.50;99.90;;;;;;5111657;27;20032;-64
2024/03/10 05:20:48;;;;;;;26.15;21.85;;;4.50;99.90;;;;;;5115002;27;20043;-64
2024/03/10 05:23:13;;;;;;;29.63;22.73;;;4.50;99.90;;;;;;5113839;27;20461;-64
2024/03/10 05:25:39;;;;;;;27.13;22.45;;;4.50;99.90;;;;;;5127388;27;20043;-64
2024/03/10 05:28:05;;;;;;;27.80;22.45;;;4.50;99.90;;;;;;5125870;27;20039;-64
2024/03/10 05:30:31;;;;;;;27.92;22.88;;;4.40;99.90;;;;;;5102902;27;20031;-64
2024/03/10 05:32:56;;;;;;;28.17;22.42;;;4.50;99.90;;;;;;5121148;27;20043;-64
2024/03/10 05:35:22;;;;;;;27.15;22.83;;;4.40;99.90;;;;;;5119651;27;20521;-64
2024/03/10 05:37:47;;;;;;;28.13;22.90;;;4.40;99.90;;;;;;5106331;27;20043;-64
2024/03/10 05:40:13;;;;;;;27.70;23.65;;;4.40;99.90;;;;;;5122526;27;20035;-64
2024/03/10 05:42:39;;;;;;;27.63;22.67;;;4.40;99.90;;;;;;5142379;27;20477;-64
2024/03/10 05:45:06;;;;;;;27.95;23.95;;;4.40;99.90;;;;;;5139053;27;20039;-64
2024/03/10 05:47:31;;;;;;;28.77;24.23;;;4.30;99.90;;;;;;5108260;27;20090;-64
2024/03/10 05:49:57;;;;;;;27.50;23.20;;;4.30;99.90;;;;;;5105569;27;20160;-64
2024/03/10 05:52:24;;;;;;;28.45;23.23;;;4.30;99.90;;;;;;5108672;27;20520;-64
2024/03/10 05:54:52;;;;;;;28.92;23.40;;;4.30;99.90;;;;;;5123678;27;20051;-64
2024/03/10 05:57:18;;;;;;;33.35;25.50;;;4.20;99.90;;;;;;5103929;27;20065;-64
2024/03/10 05:59:44;;;;;;;30.85;25.10;;;4.20;99.90;;;;;;5106555;27;20044;-64
2024/03/10 06:02:16;;;;;;;30.83;23.65;;;4.20;99.90;;;;;;5124594;27;20046;-64
2024/03/10 06:04:42;;;;;;;31.13;24.85;;;4.30;99.90;;;;;;5101625;27;20035;-64
2024/03/10 06:07:09;;;;;;;31.00;25.60;;;4.20;99.90;;;;;;5107350;27;20079;-64
2024/03/10 06:09:34;;;;;;;30.65;24.83;;;4.20;99.90;;;;;;5136756;27;20039;-64
2024/03/10 06:12:04;;;;;;;30.00;24.05;;;4.30;99.90;;;;;;5123878;27;20039;-64
2024/03/10 06:14:30;;;;;;;30.83;26.17;;;4.20;99.90;;;;;;5104504;27;20079;-64
2024/03/10 06:16:57;;;;;;;31.77;25.25;;;4.30;99.90;;;;;;5103719;28;20084;-64
2024/03/10 06:27:35;;;;;;;33.05;25.55;;;4.30;99.90;;;;;;5138962;27;20047;-64
2024/03/10 06:30:01;;;;;;;31.38;26.33;;;4.40;99.90;;;;;;5124129;27;20489;-64
2024/03/10 06:32:27;;;;;;;32.17;26.73;;;4.40;99.90;;;;;;5120016;27;20039;-64
2024/03/10 06:34:53;;;;;;;31.50;26.88;;;4.40;99.90;;;;;;5107202;28;20157;-64
2024/03/10 06:37:21;;;;;;;33.33;25.35;;;4.40;99.90;;;;;;5132759;27;20039;-64
2024/03/10 06:39:47;;;;;;;31.20;25.50;;;4.40;99.90;;;;;;5133998;27;20047;-64
2024/03/10 06:42:12;;;;;;;31.65;25.48;;;4.40;99.90;;;;;;5122439;27;20039;-64
2024/03/10 06:44:38;;;;;;;32.63;26.15;;;4.40;99.90;;;;;;5140581;27;20039;-64
2024/03/10 06:47:04;;;;;;;39.17;26.63;;;4.50;99.90;;;;;;5110569;27;20385;-64
2024/03/10 06:49:30;;;;;;;31.98;27.17;;;4.40;99.90;;;;;;5107386;27;20043;-64
2024/03/10 06:51:57;;;;;;;34.25;26.90;;;4.50;99.90;;;;;;5110379;27;20477;-64
2024/03/10 06:54:23;;;;;;;37.10;27.60;;;4.50;99.90;;;;;;5135975;27;20067;-63
2024/03/10 06:56:50;;;;;;;33.50;26.73;;;4.50;99.90;;;;;;5122797;27;20397;-63
2024/03/10 06:59:16;;;;;;;35.10;27.40;;;4.50;99.90;;;;;;5101849;27;20126;-64
2024/03/10 07:01:45;;;;;;;34.92;27.20;;;4.50;99.90;;;;;;5124273;27;20088;-64
2024/03/10 07:04:14;;;;;;;33.33;27.48;;;4.60;99.90;;;;;;5102160;27;20059;-64
2024/03/10 07:06:40;;;;;;;37.13;29.17;;;4.70;99.90;;;;;;5122086;27;20031;-64
2024/03/10 07:09:09;;;;;;;34.83;27.92;;;4.60;99.90;;;;;;5122092;27;20046;-63
2024/03/10 07:11:42;;;;;;;35.15;27.58;;;4.60;99.90;;;;;;5107182;27;20043;-64
2024/03/10 07:14:08;;;;;;;35.35;28.80;;;4.60;99.90;;;;;;5126483;27;20126;-64
2024/03/10 07:16:35;;;;;;;35.42;27.85;;;4.90;99.90;;;;;;5126746;27;20050;-64
2024/03/10 07:19:01;;;;;;;38.33;28.45;;;4.70;99.90;;;;;;5105866;27;20051;-64
2024/03/10 07:21:27;;;;;;;40.00;27.38;;;4.70;99.90;;;;;;5141056;27;20508;-64
2024/03/10 07:23:53;;;;;;;33.00;27.08;;;4.80;99.90;;;;;;5123573;27;20061;-64
2024/03/10 07:26:19;;;;;;;35.22;28.40;;;4.80;99.90;;;;;;5103390;27;20050;-64
2024/03/10 07:28:45;;;;;;;36.95;28.90;;;4.80;99.90;;;;;;5107838;27;20039;-64
2024/03/10 07:31:11;;;;;;;36.78;27.38;;;4.90;99.90;;;;;;5112201;27;20134;-64
2024/03/10 07:33:37;;;;;;;37.30;29.35;;;4.80;99.90;;;;;;5141817;27;20040;-64
2024/03/10 07:36:04;;;;;;;31.98;24.67;;;4.90;99.90;;;;;;5124429;27;20443;-64
2024/03/10 07:38:30;;;;;;;35.40;27.83;;;4.90;99.90;;;;;;5127522;27;20408;-64
2024/03/10 07:40:55;;;;;;;36.10;27.45;;;4.90;99.90;;;;;;5125525;27;20044;-64
2024/03/10 07:43:22;;;;;;;36.38;27.77;;;4.90;99.90;;;;;;5108208;27;20050;-64
2024/03/10 07:45:48;;;;;;;34.97;28.58;;;4.90;99.90;;;;;;5144720;27;20470;-64
2024/03/10 07:48:16;;;;;;;36.28;28.85;;;5.00;99.90;;;;;;5122536;27;20053;-64
2024/03/10 07:50:42;;;;;;;32.47;27.35;;;5.10;99.90;;;;;;5103495;27;20463;-64
2024/03/10 07:53:09;;;;;;;33.92;29.02;;;5.10;99.90;;;;;;5124769;27;20412;-64
2024/03/10 07:55:36;;;;;;;34.85;28.02;;;5.00;99.90;;;;;;5120876;27;20432;-64
2024/03/10 07:58:05;;;;;;;35.00;29.25;;;5.10;99.90;;;;;;5122459;27;20046;-64
2024/03/10 08:00:31;;;;;;;34.63;28.70;;;5.20;99.90;;;;;;5089402;27;20973;-64
2024/03/10 08:02:58;;;;;;;36.45;29.98;;;5.20;99.90;;;;;;5122966;27;20079;-64
2024/03/10 08:05:25;;;;;;;37.35;29.63;;;5.20;99.90;;;;;;5124698;27;20454;-64
2024/03/10 08:07:52;;;;;;;36.58;27.42;;;5.20;99.90;;;;;;5140331;27;20082;-64
2024/03/10 08:10:18;;;;;;;39.45;31.67;;;5.30;99.90;;;;;;5120780;27;20099;-64
2024/03/10 08:12:46;;;;;;;36.15;30.10;;;5.30;99.90;;;;;;5127101;27;20053;-64
2024/03/10 08:15:12;;;;;;;36.75;28.20;;;5.30;99.90;;;;;;5136718;27;20051;-64
2024/03/10 08:17:38;;;;;;;32.85;27.95;;;5.30;99.90;;;;;;5121847;27;20042;-64
2024/03/10 08:20:06;;;;;;;35.35;28.50;;;5.40;99.90;;;;;;5116364;27;20043;-64
2024/03/10 08:22:36;;;;;;;37.70;27.85;;;5.40;99.90;;;;;;5139366;27;20035;-64
2024/03/10 08:25:04;;;;;;;38.90;28.80;;;5.50;99.90;;;;;;5123093;27;20085;-64
2024/03/10 08:27:30;;;;;;;36.00;29.00;;;5.60;99.90;;;;;;5122847;27;20069;-64
2024/03/10 08:29:55;;;;;;;32.00;27.23;;;5.60;99.90;;;;;;5134348;27;20137;-64
2024/03/10 08:32:23;;;;;;;32.15;28.27;;;5.60;99.90;;;;;;5103684;27;20689;-64
2024/03/10 08:34:50;;;;;;;33.95;28.77;;;5.70;99.90;;;;;;5122495;27;20040;-64
2024/03/10 08:37:16;;;;;;;32.35;27.20;;;5.80;99.90;;;;;;5138476;27;20123;-64
2024/03/10 08:39:44;;;;;;;35.58;28.58;;;5.80;99.90;;;;;;5099128;27;20389;-64
2024/03/10 08:42:12;;;;;;;31.77;27.52;;;5.80;99.90;;;;;;5137138;27;20065;-64
2024/03/10 08:44:39;;;;;;;33.00;27.63;;;5.90;99.90;;;;;;5099423;27;20110;-64
2024/03/10 08:47:05;;;;;;;29.25;25.52;;;6.00;99.90;;;;;;5102439;27;20047;-64
2024/03/10 08:49:31;;;;;;;34.03;28.05;;;6.00;99.90;;;;;;5102340;27;20053;-64
2024/03/10 08:51:56;;;;;;;32.65;27.27;;;6.10;99.90;;;;;;5104032;27;20047;-64
2024/03/10 08:54:22;;;;;;;34.13;26.85;;;6.00;99.90;;;;;;5100393;27;20413;-64
2024/03/10 08:56:48;;;;;;;32.65;25.95;;;6.20;99.90;;;;;;5100299;27;20039;-64
2024/03/10 08:59:15;;;;;;;31.65;27.67;;;6.20;99.90;;;;;;5100502;27;20050;-64
2024/03/10 09:01:43;;;;;;;34.28;27.58;;;6.30;99.90;;;;;;5133422;27;20559;-64
2024/03/10 09:04:10;;;;;;;31.92;28.20;;;6.40;99.90;;;;;;5101135;27;20041;-64
2024/03/10 09:06:36;;;;;;;33.88;27.48;;;6.40;99.90;;;;;;5099495;27;20074;-64
2024/03/10 09:09:04;;;;;;;34.10;28.45;;;6.60;99.90;;;;;;5099851;27;20042;-64
2024/03/10 09:11:30;;;;;;;32.13;27.17;;;6.80;99.90;;;;;;5119064;27;20043;-63
2024/03/10 09:13:58;;;;;;;32.30;27.63;;;6.90;99.90;;;;;;5106936;27;20043;-64
2024/03/10 09:16:25;;;;;;;30.92;27.23;;;6.90;99.90;;;;;;5091750;27;20134;-64
2024/03/10 09:18:51;;;;;;;32.50;26.35;;;6.90;99.90;;;;;;5129214;27;20438;-63
2024/03/10 09:21:17;;;;;;;30.90;26.33;;;6.90;99.90;;;;;;5141410;27;20053;-63
2024/03/10 09:23:44;;;;;;;31.52;26.10;;;7.00;99.90;;;;;;5096183;27;20035;-63
2024/03/10 09:26:13;;;;;;;33.45;27.35;;;7.20;99.90;;;;;;5106260;27;20088;-63
2024/03/10 09:28:44;;;;;;;30.70;26.90;;;7.20;99.90;;;;;;5128469;27;20107;-63
2024/03/10 09:31:11;;;;;;;31.98;26.88;;;7.30;99.90;;;;;;5103924;27;20095;-63
2024/03/10 09:33:38;;;;;;;32.25;26.40;;;7.30;99.90;;;;;;5105738;27;20500;-64
2024/03/10 09:36:05;;;;;;;31.70;24.98;;;7.50;99.90;;;;;;5123831;27;20563;-64
2024/03/10 09:38:31;;;;;;;32.30;27.30;;;7.50;99.90;;;;;;5090756;27;20067;-63
2024/03/10 09:40:59;;;;;;;30.83;25.77;;;7.70;99.90;;;;;;5121732;27;20461;-63
2024/03/10 09:43:25;;;;;;;35.08;27.65;;;7.80;99.90;;;;;;5134840;27;20039;-64
2024/03/10 09:45:52;;;;;;;30.98;26.88;;;7.90;99.90;;;;;;5137935;27;20065;-64
2024/03/10 09:48:18;;;;;;;30.30;26.33;;;8.00;99.90;;;;;;5100903;27;20410;-63
2024/03/10 09:50:48;;;;;;;29.55;26.35;;;8.20;99.90;;;;;;5101807;27;20094;-64
2024/03/10 09:53:15;;;;;;;27.92;24.65;;;8.30;99.90;;;;;;5123573;27;20449;-64
2024/03/10 09:55:41;;;;;;;26.92;23.90;;;8.40;99.90;;;;;;5102744;27;20065;-64
2024/03/10 09:58:13;;;;;;;31.25;25.38;;;8.50;99.90;;;;;;5101275;27;20101;-63
2024/03/10 10:00:40;;;;;;;28.48;25.48;;;8.50;99.90;;;;;;5119329;27;20059;-64
2024/03/10 10:03:10;;;;;;;30.95;26.58;;;8.60;99.90;;;;;;5137602;27;20145;-63
2024/03/10 10:05:42;;;;;;;28.95;25.88;;;8.60;99.90;;;;;;5119466;27;20161;-63
2024/03/10 10:08:12;;;;;;;27.92;25.02;;;8.70;99.90;;;;;;5108949;27;20119;-63
2024/03/10 10:10:46;;;;;;;29.75;26.23;;;8.80;99.90;;;;;;5135757;27;20070;-64
2024/03/10 10:13:26;;;;;;;29.17;25.00;;;8.80;99.90;;;;;;5121845;27;20050;-64
2024/03/10 10:15:52;;;;;;;29.15;25.35;;;9.00;99.90;;;;;;5140385;27;20051;-64
2024/03/10 10:18:18;;;;;;;27.92;24.92;;;9.10;99.90;;;;;;5107674;27;20589;-64
2024/03/10 10:20:53;;;;;;;30.92;25.98;;;9.20;99.90;;;;;;5140790;27;20059;-64
2024/03/10 10:23:31;;;;;;;27.83;24.77;;;9.30;99.90;;;;;;5107196;27;20047;-64
2024/03/10 10:26:09;;;;;;;28.20;25.20;;;9.20;99.90;;;;;;5133914;27;20122;-64
2024/03/10 10:28:41;;;;;;;27.83;24.73;;;9.30;99.90;;;;;;5118433;27;20035;-63
2024/03/10 10:31:15;;;;;;;28.90;25.80;;;9.20;99.90;;;;;;5133036;27;20039;-63
2024/03/10 10:33:45;;;;;;;28.67;25.75;;;9.30;99.90;;;;;;5121214;27;20556;-63
2024/03/10 10:36:11;;;;;;;28.90;25.80;;;9.20;99.90;;;;;;5102761;27;20036;-64
2024/03/10 10:38:38;;;;;;;30.08;26.63;;;9.10;99.90;;;;;;5133448;27;20051;-63
2024/03/10 10:41:05;;;;;;;27.73;24.73;;;9.20;99.90;;;;;;5103131;27;20469;-64
2024/03/10 10:43:38;;;;;;;30.40;27.25;;;9.30;99.90;;;;;;5120823;27;20114;-64
2024/03/10 10:46:10;;;;;;;27.92;24.92;;;9.30;99.90;;;;;;5086831;28;20043;-63
2024/03/10 10:48:36;;;;;;;28.30;25.25;;;9.50;99.90;;;;;;5103474;28;20065;-63
2024/03/10 10:51:06;;;;;;;30.02;26.85;;;9.30;99.90;;;;;;5086472;28;20046;-64
2024/03/10 10:53:35;;;;;;;28.50;25.52;;;9.40;99.90;;;;;;5079822;28;20032;-64
2024/03/10 10:56:02;;;;;;;27.92;25.13;;;9.60;99.90;;;;;;5086129;28;20039;-64
2024/03/10 10:58:31;;;;;;;28.05;25.15;;;9.80;99.90;;;;;;5102220;28;20032;-64
2024/03/10 11:01:04;;;;;;;28.70;25.60;;;10.20;99.90;;;;;;5101960;28;20043;-63
2024/03/10 11:03:36;;;;;;;26.50;22.60;;;10.00;99.90;;;;;;5100886;28;20383;-64
2024/03/10 11:06:01;;;;;;;28.45;25.40;;;10.10;99.90;;;;;;5091790;28;20031;-64
2024/03/10 11:08:37;;;;;;;27.80;24.80;;;10.20;99.90;;;;;;5101965;28;20088;-64
2024/03/10 11:11:03;;;;;;;25.67;22.70;;;10.30;99.90;;;;;;5085029;28;20038;-63
2024/03/10 11:13:29;;;;;;;26.95;24.13;;;10.30;99.90;;;;;;5121262;27;20071;-64
2024/03/10 11:16:22;;;;;;;27.42;24.52;;;10.30;99.90;;;;;;5085768;28;20105;-64
2024/03/10 11:18:49;;;;;;;26.27;23.52;;;10.30;99.90;;;;;;5088107;28;20040;-63
2024/03/10 11:21:22;;;;;;;26.25;22.90;;;10.30;99.90;;;;;;5103441;28;20047;-63
2024/03/10 11:23:51;;;;;;;25.27;22.77;;;10.20;99.90;;;;;;5083829;28;20036;-64
2024/03/10 11:26:23;;;;;;;26.60;23.27;;;10.20;99.90;;;;;;5086894;28;20081;-63
2024/03/10 11:28:50;;;;;;;27.02;24.13;;;10.10;99.90;;;;;;5071631;28;20035;-64
2024/03/10 11:31:35;;;;;;;24.77;21.95;;;10.10;99.90;;;;;;5105551;27;20405;-63
2024/03/10 11:34:04;;;;;;;26.60;23.92;;;10.30;99.90;;;;;;5085317;27;20032;-64
2024/03/10 11:36:38;;;;;;;26.45;22.52;;;10.20;99.90;;;;;;5076411;27;20035;-64
2024/03/10 11:39:04;;;;;;;25.25;22.73;;;10.30;99.90;;;;;;5108530;27;20038;-64
2024/03/10 11:41:31;;;;;;;27.60;24.70;;;10.30;99.90;;;;;;5084837;28;20043;-64
2024/03/10 11:43:58;;;;;;;25.10;22.50;;;10.50;99.90;;;;;;5087014;27;20036;-64
2024/03/10 11:46:29;;;;;;;27.27;21.98;;;10.50;99.90;;;;;;5138545;27;20099;-63
2024/03/10 11:48:55;;;;;;;24.65;21.90;;;10.60;99.90;;;;;;5140462;27;20042;-64
2024/03/10 11:51:29;;;;;;;27.58;21.33;;;10.60;99.90;;;;;;5145667;27;20129;-64
2024/03/10 11:53:55;;;;;;;23.20;20.92;;;10.70;99.90;;;;;;5145580;27;20099;-64
2024/03/10 11:56:22;;;;;;;25.27;22.58;;;10.70;99.90;;;;;;5131172;27;20084;-64
2024/03/10 11:58:49;;;;;;;25.30;22.90;;;10.60;99.90;;;;;;5108712;27;20045;-64
2024/03/10 12:01:16;;;;;;;23.20;20.80;;;10.80;99.90;;;;;;5110158;27;20489;-64
2024/03/10 12:03:44;;;;;;;24.17;21.63;;;10.80;99.90;;;;;;5099030;27;20050;-64
2024/03/10 12:06:10;;;;;;;23.52;21.15;;;10.90;99.90;;;;;;5126334;27;20393;-64
2024/03/10 12:08:42;;;;;;;26.05;22.38;;;10.80;99.90;;;;;;5146345;27;20043;-64
2024/03/10 12:11:10;;;;;;;25.58;22.98;;;10.90;99.90;;;;;;5142735;27;20077;-63
2024/03/10 12:13:41;;;;;;;22.00;19.48;;;10.90;99.90;;;;;;5100094;27;20039;-63
2024/03/10 12:16:07;;;;;;;22.92;20.63;;;11.00;99.90;;;;;;5127072;27;20409;-64
2024/03/10 12:18:35;;;;;;;22.27;20.08;;;11.00;99.90;;;;;;5107729;27;20050;-64
2024/03/10 12:21:03;;;;;;;22.83;20.63;;;11.10;99.90;;;;;;5121830;27;20032;-64
2024/03/10 12:23:33;;;;;;;22.77;20.40;;;11.10;99.90;;;;;;5145112;27;20067;-64
2024/03/10 12:26:05;;;;;;;24.83;22.13;;;11.10;99.90;;;;;;5107423;27;20038;-64
2024/03/10 12:28:31;;;;;;;22.67;20.48;;;11.10;99.90;;;;;;5143344;27;20481;-64
2024/03/10 12:30:58;;;;;;;23.52;21.23;;;11.20;99.90;;;;;;5123952;27;20045;-64
2024/03/10 12:33:23;;;;;;;22.55;20.15;;;11.40;99.90;;;;;;5112924;27;20035;-64
2024/03/10 12:35:50;;;;;;;23.88;21.48;;;11.10;99.90;;;;;;5124151;27;20081;-64
2024/03/10 12:38:16;;;;;;;22.58;20.27;;;11.10;99.90;;;;;;5141843;27;20031;-63
2024/03/10 12:40:42;;;;;;;23.30;21.00;;;11.30;99.90;;;;;;5127777;27;20100;-64
2024/03/10 12:43:07;;;;;;;21.83;19.30;;;11.10;99.90;;;;;;5109681;27;20044;-64
2024/03/10 12:45:33;;;;;;;22.50;20.10;;;11.00;99.90;;;;;;5089016;27;20043;-64
2024/03/10 12:47:59;;;;;;;24.80;22.20;;;11.10;99.90;;;;;;5108305;27;20453;-64
2024/03/10 12:50:24;;;;;;;22.90;20.55;;;11.20;99.90;;;;;;5110022;27;20996;-64
2024/03/10 12:52:50;;;;;;;21.15;19.05;;;11.30;99.90;;;;;;5106992;27;20043;-63
2024/03/10 12:55:18;;;;;;;24.02;20.10;;;11.40;99.90;;;;;;5107014;27;20097;-64
2024/03/10 12:57:44;;;;;;;21.10;18.90;;;11.50;99.90;;;;;;5107652;27;20047;-64